sensor_id;sensor_type;location;lat;lon;timestamp;temperature;humidity
68274;SHT30;55104;47.356;19.448;2023-05-10T00:02:13;11.56;81.86
68274;SHT30;55104;47.356;19.448;2023-05-10T00:05:15;11.59;81.96
68274;SHT30;55104;47.356;19.448;2023-05-10T00:08:17;11.69;81.97
68274;SHT30;55104;47.356;19.448;2023-05-10T00:11:19;11.76;81.77
68274;SHT30;55104;47.356;19.448;2023-05-10T00:14:23;11.81;81.63
68274;SHT30;55104;47.356;19.448;2023-05-10T00:17:25;11.86;81.29
68274;SHT30;55104;47.356;19.448;2023-05-10T00:20:28;11.97;80.94
68274;SHT30;55104;47.356;19.448;2023-05-10T00:23:30;12.02;80.65
68274;SHT30;55104;47.356;19.448;2023-05-10T00:26:32;12.02;80.65
68274;SHT30;55104;47.356;19.448;2023-05-10T00:29:34;12.05;80.25
68274;SHT30;55104;47.356;19.448;2023-05-10T00:32:37;12.04;80.07
68274;SHT30;55104;47.356;19.448;2023-05-10T00:35:39;12.10;79.81
68274;SHT30;55104;47.356;19.448;2023-05-10T00:38:43;12.10;79.46
68274;SHT30;55104;47.356;19.448;2023-05-10T00:41:45;12.11;79.23
68274;SHT30;55104;47.356;19.448;2023-05-10T00:44:47;12.14;78.76
68274;SHT30;55104;47.356;19.448;2023-05-10T00:47:50;12.21;78.88
68274;SHT30;55104;47.356;19.448;2023-05-10T00:50:54;12.22;79.26
68274;SHT30;55104;47.356;19.448;2023-05-10T00:53:56;12.25;79.73
68274;SHT30;55104;47.356;19.448;2023-05-10T00:56:59;12.17;80.74
68274;SHT30;55104;47.356;19.448;2023-05-10T01:00:01;12.15;81.47
68274;SHT30;55104;47.356;19.448;2023-05-10T01:03:04;12.05;82.14
68274;SHT30;55104;47.356;19.448;2023-05-10T01:06:07;11.99;81.72
68274;SHT30;55104;47.356;19.448;2023-05-10T01:09:09;11.99;81.99
68274;SHT30;55104;47.356;19.448;2023-05-10T01:12:13;11.97;82.44
68274;SHT30;55104;47.356;19.448;2023-05-10T01:15:16;11.95;82.77
68274;SHT30;55104;47.356;19.448;2023-05-10T01:18:20;11.93;83.15
68274;SHT30;55104;47.356;19.448;2023-05-10T01:35:12;11.86;84.04
68274;SHT30;55104;47.356;19.448;2023-05-10T01:38:29;11.81;84.35
68274;SHT30;55104;47.356;19.448;2023-05-10T01:41:54;11.71;84.93
68274;SHT30;55104;47.356;19.448;2023-05-10T01:45:11;11.67;84.80
68274;SHT30;55104;47.356;19.448;2023-05-10T01:48:17;11.66;85.29
68274;SHT30;55104;47.356;19.448;2023-05-10T01:51:26;11.66;85.28
68274;SHT30;55104;47.356;19.448;2023-05-10T01:54:29;11.63;85.04
68274;SHT30;55104;47.356;19.448;2023-05-10T01:57:34;11.55;85.06
68274;SHT30;55104;47.356;19.448;2023-05-10T02:00:40;11.53;84.94
68274;SHT30;55104;47.356;19.448;2023-05-10T02:03:44;11.43;84.83
68274;SHT30;55104;47.356;19.448;2023-05-10T02:06:47;11.40;84.70
68274;SHT30;55104;47.356;19.448;2023-05-10T02:09:50;11.35;84.32
68274;SHT30;55104;47.356;19.448;2023-05-10T02:12:53;11.33;84.07
68274;SHT30;55104;47.356;19.448;2023-05-10T02:15:56;11.29;83.59
68274;SHT30;55104;47.356;19.448;2023-05-10T02:19:01;11.19;83.98
68274;SHT30;55104;47.356;19.448;2023-05-10T02:22:04;11.14;83.92
68274;SHT30;55104;47.356;19.448;2023-05-10T02:25:08;11.11;83.71
68274;SHT30;55104;47.356;19.448;2023-05-10T02:28:11;11.01;83.69
68274;SHT30;55104;47.356;19.448;2023-05-10T02:31:14;10.98;83.49
68274;SHT30;55104;47.356;19.448;2023-05-10T02:34:17;10.90;83.82
68274;SHT30;55104;47.356;19.448;2023-05-10T02:37:20;10.83;84.26
68274;SHT30;55104;47.356;19.448;2023-05-10T02:40:23;10.80;84.35
68274;SHT30;55104;47.356;19.448;2023-05-10T02:43:32;10.84;83.66
68274;SHT30;55104;47.356;19.448;2023-05-10T02:46:35;10.80;83.12
68274;SHT30;55104;47.356;19.448;2023-05-10T02:49:39;10.84;82.63
68274;SHT30;55104;47.356;19.448;2023-05-10T02:52:46;10.80;82.24
68274;SHT30;55104;47.356;19.448;2023-05-10T02:55:52;10.80;82.53
68274;SHT30;55104;47.356;19.448;2023-05-10T02:58:55;10.80;82.62
68274;SHT30;55104;47.356;19.448;2023-05-10T03:01:57;10.84;82.62
68274;SHT30;55104;47.356;19.448;2023-05-10T03:04:59;10.81;82.39
68274;SHT30;55104;47.356;19.448;2023-05-10T03:08:01;10.81;82.36
68274;SHT30;55104;47.356;19.448;2023-05-10T03:17:48;10.78;82.11
68274;SHT30;55104;47.356;19.448;2023-05-10T03:20:57;10.80;81.81
68274;SHT30;55104;47.356;19.448;2023-05-10T03:24:08;10.90;81.40
68274;SHT30;55104;47.356;19.448;2023-05-10T03:27:11;10.85;81.44
68274;SHT30;55104;47.356;19.448;2023-05-10T03:30:15;10.85;81.51
68274;SHT30;55104;47.356;19.448;2023-05-10T03:33:18;10.81;81.46
68274;SHT30;55104;47.356;19.448;2023-05-10T03:36:21;10.85;81.45
68274;SHT30;55104;47.356;19.448;2023-05-10T03:39:23;10.84;81.43
68274;SHT30;55104;47.356;19.448;2023-05-10T03:42:31;10.88;81.53
68274;SHT30;55104;47.356;19.448;2023-05-10T03:45:33;10.88;81.31
68274;SHT30;55104;47.356;19.448;2023-05-10T03:48:37;10.88;81.39
68274;SHT30;55104;47.356;19.448;2023-05-10T03:51:40;10.87;81.57
68274;SHT30;55104;47.356;19.448;2023-05-10T03:54:42;10.88;81.10
68274;SHT30;55104;47.356;19.448;2023-05-10T03:57:44;10.88;80.93
68274;SHT30;55104;47.356;19.448;2023-05-10T04:00:46;10.93;81.31
68274;SHT30;55104;47.356;19.448;2023-05-10T04:03:49;10.97;81.43
68274;SHT30;55104;47.356;19.448;2023-05-10T04:06:51;11.04;81.18
68274;SHT30;55104;47.356;19.448;2023-05-10T04:09:53;11.11;81.69
68274;SHT30;55104;47.356;19.448;2023-05-10T04:12:56;11.12;82.18
68274;SHT30;55104;47.356;19.448;2023-05-10T04:15:59;11.18;83.39
68274;SHT30;55104;47.356;19.448;2023-05-10T04:19:01;11.22;83.24
68274;SHT30;55104;47.356;19.448;2023-05-10T04:22:03;11.35;82.45
68274;SHT30;55104;47.356;19.448;2023-05-10T04:25:05;11.47;81.98
68274;SHT30;55104;47.356;19.448;2023-05-10T04:28:08;11.55;81.93
68274;SHT30;55104;47.356;19.448;2023-05-10T04:31:10;11.65;82.28
68274;SHT30;55104;47.356;19.448;2023-05-10T04:34:12;11.58;85.53
68274;SHT30;55104;47.356;19.448;2023-05-10T04:37:14;11.52;86.48
68274;SHT30;55104;47.356;19.448;2023-05-10T04:40:16;11.50;86.56
68274;SHT30;55104;47.356;19.448;2023-05-10T04:43:19;11.66;85.67
68274;SHT30;55104;47.356;19.448;2023-05-10T04:46:21;11.63;84.98
68274;SHT30;55104;47.356;19.448;2023-05-10T04:49:24;11.70;84.84
68274;SHT30;55104;47.356;19.448;2023-05-10T04:52:26;11.53;84.87
68274;SHT30;55104;47.356;19.448;2023-05-10T04:55:28;11.60;84.39
68274;SHT30;55104;47.356;19.448;2023-05-10T04:58:30;11.67;84.04
68274;SHT30;55104;47.356;19.448;2023-05-10T05:01:32;11.76;83.74
68274;SHT30;55104;47.356;19.448;2023-05-10T05:04:34;11.66;83.47
68274;SHT30;55104;47.356;19.448;2023-05-10T05:07:36;11.67;83.95
68274;SHT30;55104;47.356;19.448;2023-05-10T05:10:40;11.60;84.11
68274;SHT30;55104;47.356;19.448;2023-05-10T05:13:42;11.59;83.99
68274;SHT30;55104;47.356;19.448;2023-05-10T05:16:44;11.70;83.96
68274;SHT30;55104;47.356;19.448;2023-05-10T05:19:46;11.74;84.19
68274;SHT30;55104;47.356;19.448;2023-05-10T05:22:48;11.81;84.03
68274;SHT30;55104;47.356;19.448;2023-05-10T05:25:54;11.87;83.50
68274;SHT30;55104;47.356;19.448;2023-05-10T05:28:56;12.08;83.25
68274;SHT30;55104;47.356;19.448;2023-05-10T05:31:58;12.10;81.99
68274;SHT30;55104;47.356;19.448;2023-05-10T05:35:01;12.21;82.14
68274;SHT30;55104;47.356;19.448;2023-05-10T05:38:03;12.24;81.86
68274;SHT30;55104;47.356;19.448;2023-05-10T05:41:05;12.45;80.85
68274;SHT30;55104;47.356;19.448;2023-05-10T05:44:07;12.43;80.00
68274;SHT30;55104;47.356;19.448;2023-05-10T05:47:09;12.84;79.78
68274;SHT30;55104;47.356;19.448;2023-05-10T05:50:11;12.98;77.21
68274;SHT30;55104;47.356;19.448;2023-05-10T05:53:13;13.52;76.14
68274;SHT30;55104;47.356;19.448;2023-05-10T05:56:15;14.31;73.56
68274;SHT30;55104;47.356;19.448;2023-05-10T05:59:17;14.39;71.89
68274;SHT30;55104;47.356;19.448;2023-05-10T06:02:19;15.23;69.51
68274;SHT30;55104;47.356;19.448;2023-05-10T06:05:21;15.53;68.24
68274;SHT30;55104;47.356;19.448;2023-05-10T06:08:23;15.61;66.93
68274;SHT30;55104;47.356;19.448;2023-05-10T06:11:25;16.13;66.23
68274;SHT30;55104;47.356;19.448;2023-05-10T06:14:27;15.90;66.87
68274;SHT30;55104;47.356;19.448;2023-05-10T06:17:29;15.32;68.29
68274;SHT30;55104;47.356;19.448;2023-05-10T06:20:32;14.91;69.93
68274;SHT30;55104;47.356;19.448;2023-05-10T06:23:33;14.89;70.53
68274;SHT30;55104;47.356;19.448;2023-05-10T06:26:36;14.49;71.02
68274;SHT30;55104;47.356;19.448;2023-05-10T06:29:38;14.41;72.79
68274;SHT30;55104;47.356;19.448;2023-05-10T06:32:40;14.66;71.71
68274;SHT30;55104;47.356;19.448;2023-05-10T06:35:42;14.89;72.13
68274;SHT30;55104;47.356;19.448;2023-05-10T06:38:44;15.00;69.88
68274;SHT30;55104;47.356;19.448;2023-05-10T06:41:46;14.90;69.01
68274;SHT30;55104;47.356;19.448;2023-05-10T06:44:49;14.75;69.61
68274;SHT30;55104;47.356;19.448;2023-05-10T06:47:51;14.79;69.33
68274;SHT30;55104;47.356;19.448;2023-05-10T06:50:53;15.00;68.37
68274;SHT30;55104;47.356;19.448;2023-05-10T06:54:15;15.56;67.67
68274;SHT30;55104;47.356;19.448;2023-05-10T06:57:17;15.45;67.19
68274;SHT30;55104;47.356;19.448;2023-05-10T07:00:31;15.58;67.00
68274;SHT30;55104;47.356;19.448;2023-05-10T07:03:33;15.63;66.73
68274;SHT30;55104;47.356;19.448;2023-05-10T07:06:35;15.73;66.08
68274;SHT30;55104;47.356;19.448;2023-05-10T07:09:37;15.58;66.66
68274;SHT30;55104;47.356;19.448;2023-05-10T07:12:39;15.59;66.98
68274;SHT30;55104;47.356;19.448;2023-05-10T07:15:41;15.83;67.31
68274;SHT30;55104;47.356;19.448;2023-05-10T07:18:44;16.08;66.48
68274;SHT30;55104;47.356;19.448;2023-05-10T07:21:46;16.18;65.42
68274;SHT30;55104;47.356;19.448;2023-05-10T07:24:48;16.45;65.72
68274;SHT30;55104;47.356;19.448;2023-05-10T07:27:50;16.42;65.22
68274;SHT30;55104;47.356;19.448;2023-05-10T07:30:52;15.97;65.11
68274;SHT30;55104;47.356;19.448;2023-05-10T07:33:54;16.20;66.06
68274;SHT30;55104;47.356;19.448;2023-05-10T07:36:58;16.54;64.99
68274;SHT30;55104;47.356;19.448;2023-05-10T07:40:00;16.66;64.57
68274;SHT30;55104;47.356;19.448;2023-05-10T07:43:02;16.90;63.77
68274;SHT30;55104;47.356;19.448;2023-05-10T07:46:04;17.00;64.77
68274;SHT30;55104;47.356;19.448;2023-05-10T07:49:07;16.79;63.89
68274;SHT30;55104;47.356;19.448;2023-05-10T07:52:09;16.56;64.60
68274;SHT30;55104;47.356;19.448;2023-05-10T07:55:11;16.55;65.20
68274;SHT30;55104;47.356;19.448;2023-05-10T07:58:13;16.99;64.50
68274;SHT30;55104;47.356;19.448;2023-05-10T08:01:15;16.94;62.62
68274;SHT30;55104;47.356;19.448;2023-05-10T08:04:17;17.13;62.04
68274;SHT30;55104;47.356;19.448;2023-05-10T08:07:19;16.92;62.84
68274;SHT30;55104;47.356;19.448;2023-05-10T08:10:21;16.52;62.61
68274;SHT30;55104;47.356;19.448;2023-05-10T08:13:23;16.87;63.13
68274;SHT30;55104;47.356;19.448;2023-05-10T08:16:25;17.31;61.78
68274;SHT30;55104;47.356;19.448;2023-05-10T08:19:28;17.26;62.42
68274;SHT30;55104;47.356;19.448;2023-05-10T08:22:30;17.32;62.51
68274;SHT30;55104;47.356;19.448;2023-05-10T08:25:32;17.58;60.55
68274;SHT30;55104;47.356;19.448;2023-05-10T08:28:34;17.45;60.51
68274;SHT30;55104;47.356;19.448;2023-05-10T08:31:36;17.96;61.80
68274;SHT30;55104;47.356;19.448;2023-05-10T08:34:38;18.04;60.24
68274;SHT30;55104;47.356;19.448;2023-05-10T08:37:40;18.34;59.46
68274;SHT30;55104;47.356;19.448;2023-05-10T08:40:43;18.36;60.34
68274;SHT30;55104;47.356;19.448;2023-05-10T08:43:45;18.03;59.08
68274;SHT30;55104;47.356;19.448;2023-05-10T08:46:50;17.75;59.55
68274;SHT30;55104;47.356;19.448;2023-05-10T08:49:55;17.73;59.78
68274;SHT30;55104;47.356;19.448;2023-05-10T08:53:00;18.09;58.32
68274;SHT30;55104;47.356;19.448;2023-05-10T08:56:05;18.00;58.08
68274;SHT30;55104;47.356;19.448;2023-05-10T08:59:08;18.23;58.48
68274;SHT30;55104;47.356;19.448;2023-05-10T09:02:11;18.81;57.39
68274;SHT30;55104;47.356;19.448;2023-05-10T09:05:14;18.96;55.85
68274;SHT30;55104;47.356;19.448;2023-05-10T09:08:18;19.26;56.05
68274;SHT30;55104;47.356;19.448;2023-05-10T09:11:20;19.09;55.55
68274;SHT30;55104;47.356;19.448;2023-05-10T09:14:24;18.56;55.63
68274;SHT30;55104;47.356;19.448;2023-05-10T09:17:27;18.77;56.21
68274;SHT30;55104;47.356;19.448;2023-05-10T09:20:30;18.65;55.29
68274;SHT30;55104;47.356;19.448;2023-05-10T09:23:32;19.13;53.65
68274;SHT30;55104;47.356;19.448;2023-05-10T09:26:35;19.58;54.19
68274;SHT30;55104;47.356;19.448;2023-05-10T09:29:47;19.76;54.02
68274;SHT30;55104;47.356;19.448;2023-05-10T09:32:49;19.83;54.04
68274;SHT30;55104;47.356;19.448;2023-05-10T09:35:52;19.75;52.97
68274;SHT30;55104;47.356;19.448;2023-05-10T09:38:54;19.57;53.14
68274;SHT30;55104;47.356;19.448;2023-05-10T09:41:57;19.64;53.38
68274;SHT30;55104;47.356;19.448;2023-05-10T09:45:04;18.69;53.55
68274;SHT30;55104;47.356;19.448;2023-05-10T09:48:07;19.31;54.62
68274;SHT30;55104;47.356;19.448;2023-05-10T09:51:09;19.81;53.03
68274;SHT30;55104;47.356;19.448;2023-05-10T09:54:13;19.74;53.61
68274;SHT30;55104;47.356;19.448;2023-05-10T09:57:20;18.98;53.77
68274;SHT30;55104;47.356;19.448;2023-05-10T10:00:23;18.24;53.60
68274;SHT30;55104;47.356;19.448;2023-05-10T10:03:25;18.43;54.23
68274;SHT30;55104;47.356;19.448;2023-05-10T10:06:35;19.44;53.68
68274;SHT30;55104;47.356;19.448;2023-05-10T10:09:38;19.90;53.77
68274;SHT30;55104;47.356;19.448;2023-05-10T10:12:41;20.64;51.83
68274;SHT30;55104;47.356;19.448;2023-05-10T10:15:43;21.12;48.85
68274;SHT30;55104;47.356;19.448;2023-05-10T10:18:52;21.34;47.41
68274;SHT30;55104;47.356;19.448;2023-05-10T10:21:55;21.50;46.47
68274;SHT30;55104;47.356;19.448;2023-05-10T10:24:57;21.12;46.36
68274;SHT30;55104;47.356;19.448;2023-05-10T10:28:24;20.68;47.39
68274;SHT30;55104;47.356;19.448;2023-05-10T10:31:34;20.59;48.59
68274;SHT30;55104;47.356;19.448;2023-05-10T10:34:38;20.98;46.87
68274;SHT30;55104;47.356;19.448;2023-05-10T10:37:45;21.44;48.79
68274;SHT30;55104;47.356;19.448;2023-05-10T10:40:48;21.58;47.40
68274;SHT30;55104;47.356;19.448;2023-05-10T10:47:24;21.57;48.50
68274;SHT30;55104;47.356;19.448;2023-05-10T10:50:26;21.06;47.67
68274;SHT30;55104;47.356;19.448;2023-05-10T10:53:29;21.12;46.93
68274;SHT30;55104;47.356;19.448;2023-05-10T10:56:32;21.23;48.18
68274;SHT30;55104;47.356;19.448;2023-05-10T10:59:41;21.54;47.84
68274;SHT30;55104;47.356;19.448;2023-05-10T11:02:46;22.12;46.67
68274;SHT30;55104;47.356;19.448;2023-05-10T11:05:57;20.92;47.57
68274;SHT30;55104;47.356;19.448;2023-05-10T11:09:10;20.79;49.23
68274;SHT30;55104;47.356;19.448;2023-05-10T11:12:13;20.92;49.27
68274;SHT30;55104;47.356;19.448;2023-05-10T11:15:15;19.79;49.40
68274;SHT30;55104;47.356;19.448;2023-05-10T11:18:18;19.50;49.65
68274;SHT30;55104;47.356;19.448;2023-05-10T11:21:20;19.99;49.12
68274;SHT30;55104;47.356;19.448;2023-05-10T11:24:26;19.83;49.04
68274;SHT30;55104;47.356;19.448;2023-05-10T11:27:29;19.19;49.80
68274;SHT30;55104;47.356;19.448;2023-05-10T11:30:31;19.23;50.61
68274;SHT30;55104;47.356;19.448;2023-05-10T11:33:53;19.38;51.31
68274;SHT30;55104;47.356;19.448;2023-05-10T11:36:56;19.02;51.43
68274;SHT30;55104;47.356;19.448;2023-05-10T11:39:59;18.93;51.14
68274;SHT30;55104;47.356;19.448;2023-05-10T11:43:01;19.07;51.13
68274;SHT30;55104;47.356;19.448;2023-05-10T11:46:06;18.91;52.04
68274;SHT30;55104;47.356;19.448;2023-05-10T11:49:08;18.77;50.45
68274;SHT30;55104;47.356;19.448;2023-05-10T11:52:10;19.07;49.78
68274;SHT30;55104;47.356;19.448;2023-05-10T11:55:13;18.93;49.82
68274;SHT30;55104;47.356;19.448;2023-05-10T11:58:15;18.93;49.55
68274;SHT30;55104;47.356;19.448;2023-05-10T12:01:17;19.11;50.14
68274;SHT30;55104;47.356;19.448;2023-05-10T12:04:19;19.41;48.97
68274;SHT30;55104;47.356;19.448;2023-05-10T12:07:22;19.75;49.24
68274;SHT30;55104;47.356;19.448;2023-05-10T12:10:26;20.03;46.46
68274;SHT30;55104;47.356;19.448;2023-05-10T12:13:28;20.13;46.98
68274;SHT30;55104;47.356;19.448;2023-05-10T12:16:30;20.23;46.08
68274;SHT30;55104;47.356;19.448;2023-05-10T12:19:42;20.24;46.32
68274;SHT30;55104;47.356;19.448;2023-05-10T12:22:53;19.79;45.88
68274;SHT30;55104;47.356;19.448;2023-05-10T12:26:01;20.08;45.77
68274;SHT30;55104;47.356;19.448;2023-05-10T12:32:15;20.33;45.62
68274;SHT30;55104;47.356;19.448;2023-05-10T12:35:17;20.44;46.80
68274;SHT30;55104;47.356;19.448;2023-05-10T12:38:37;20.61;45.44
68274;SHT30;55104;47.356;19.448;2023-05-10T12:41:40;20.50;44.39
68274;SHT30;55104;47.356;19.448;2023-05-10T12:44:44;20.48;44.03
68274;SHT30;55104;47.356;19.448;2023-05-10T12:47:46;20.81;44.08
68274;SHT30;55104;47.356;19.448;2023-05-10T12:50:48;20.72;43.55
68274;SHT30;55104;47.356;19.448;2023-05-10T12:53:50;20.43;44.54
68274;SHT30;55104;47.356;19.448;2023-05-10T12:56:52;20.33;44.67
68274;SHT30;55104;47.356;19.448;2023-05-10T12:59:54;20.43;45.90
68274;SHT30;55104;47.356;19.448;2023-05-10T13:02:56;20.93;44.93
68274;SHT30;55104;47.356;19.448;2023-05-10T13:05:58;20.88;44.57
68274;SHT30;55104;47.356;19.448;2023-05-10T13:09:00;21.05;43.65
68274;SHT30;55104;47.356;19.448;2023-05-10T13:12:02;20.95;43.27
68274;SHT30;55104;47.356;19.448;2023-05-10T13:15:05;20.75;43.79
68274;SHT30;55104;47.356;19.448;2023-05-10T13:18:08;20.58;43.86
68274;SHT30;55104;47.356;19.448;2023-05-10T13:21:10;20.41;44.24
68274;SHT30;55104;47.356;19.448;2023-05-10T13:24:13;20.93;44.70
68274;SHT30;55104;47.356;19.448;2023-05-10T13:27:15;21.12;43.39
68274;SHT30;55104;47.356;19.448;2023-05-10T13:30:17;21.19;43.15
68274;SHT30;55104;47.356;19.448;2023-05-10T13:33:19;21.58;42.04
68274;SHT30;55104;47.356;19.448;2023-05-10T13:36:21;21.84;42.05
68274;SHT30;55104;47.356;19.448;2023-05-10T13:39:24;22.05;41.71
68274;SHT30;55104;47.356;19.448;2023-05-10T13:42:26;22.10;41.58
68274;SHT30;55104;47.356;19.448;2023-05-10T13:45:28;21.99;41.50
68274;SHT30;55104;47.356;19.448;2023-05-10T13:48:30;22.19;40.62
68274;SHT30;55104;47.356;19.448;2023-05-10T13:51:33;22.28;41.15
68274;SHT30;55104;47.356;19.448;2023-05-10T13:54:36;21.22;42.15
68274;SHT30;55104;47.356;19.448;2023-05-10T13:57:39;20.48;43.10
68274;SHT30;55104;47.356;19.448;2023-05-10T14:00:41;19.96;44.57
68274;SHT30;55104;47.356;19.448;2023-05-10T14:03:43;20.24;44.61
68274;SHT30;55104;47.356;19.448;2023-05-10T14:06:45;19.97;43.43
68274;SHT30;55104;47.356;19.448;2023-05-10T14:09:47;20.31;44.45
68274;SHT30;55104;47.356;19.448;2023-05-10T14:12:50;20.55;44.14
68274;SHT30;55104;47.356;19.448;2023-05-10T14:15:53;20.79;43.43
68274;SHT30;55104;47.356;19.448;2023-05-10T14:18:55;20.51;42.46
68274;SHT30;55104;47.356;19.448;2023-05-10T14:21:57;20.52;43.64
68274;SHT30;55104;47.356;19.448;2023-05-10T14:25:00;20.51;42.69
68274;SHT30;55104;47.356;19.448;2023-05-10T14:28:02;20.38;42.69
68274;SHT30;55104;47.356;19.448;2023-05-10T14:31:04;20.36;42.20
68274;SHT30;55104;47.356;19.448;2023-05-10T14:34:07;20.00;41.27
68274;SHT30;55104;47.356;19.448;2023-05-10T14:37:10;20.17;42.64
68274;SHT30;55104;47.356;19.448;2023-05-10T14:40:13;20.24;42.51
68274;SHT30;55104;47.356;19.448;2023-05-10T14:43:16;20.67;41.02
68274;SHT30;55104;47.356;19.448;2023-05-10T14:46:18;20.75;42.13
68274;SHT30;55104;47.356;19.448;2023-05-10T14:49:22;20.81;42.10
68274;SHT30;55104;47.356;19.448;2023-05-10T14:52:24;20.61;41.95
68274;SHT30;55104;47.356;19.448;2023-05-10T14:55:26;20.17;42.07
68274;SHT30;55104;47.356;19.448;2023-05-10T14:58:28;20.12;43.25
68274;SHT30;55104;47.356;19.448;2023-05-10T15:01:31;19.97;42.98
68274;SHT30;55104;47.356;19.448;2023-05-10T15:04:35;20.08;43.24
68274;SHT30;55104;47.356;19.448;2023-05-10T15:07:37;19.82;44.30
68274;SHT30;55104;47.356;19.448;2023-05-10T15:10:40;19.71;44.83
68274;SHT30;55104;47.356;19.448;2023-05-10T15:13:42;19.58;44.71
68274;SHT30;55104;47.356;19.448;2023-05-10T15:16:43;19.55;44.35
68274;SHT30;55104;47.356;19.448;2023-05-10T15:19:46;19.64;43.94
68274;SHT30;55104;47.356;19.448;2023-05-10T15:22:48;19.72;43.16
68274;SHT30;55104;47.356;19.448;2023-05-10T15:25:50;19.59;43.04
68274;SHT30;55104;47.356;19.448;2023-05-10T15:28:53;19.57;43.50
68274;SHT30;55104;47.356;19.448;2023-05-10T15:31:57;19.53;43.26
68274;SHT30;55104;47.356;19.448;2023-05-10T15:34:59;19.76;43.07
68274;SHT30;55104;47.356;19.448;2023-05-10T15:38:01;19.79;43.32
68274;SHT30;55104;47.356;19.448;2023-05-10T15:41:03;19.76;43.08
68274;SHT30;55104;47.356;19.448;2023-05-10T15:44:05;19.76;42.86
68274;SHT30;55104;47.356;19.448;2023-05-10T15:47:07;19.97;41.82
68274;SHT30;55104;47.356;19.448;2023-05-10T15:50:09;20.29;42.49
68274;SHT30;55104;47.356;19.448;2023-05-10T15:53:11;20.65;42.92
68274;SHT30;55104;47.356;19.448;2023-05-10T15:56:14;20.86;44.58
68274;SHT30;55104;47.356;19.448;2023-05-10T15:59:16;20.57;44.87
68274;SHT30;55104;47.356;19.448;2023-05-10T16:02:18;20.36;44.88
68274;SHT30;55104;47.356;19.448;2023-05-10T16:05:20;19.69;44.69
68274;SHT30;55104;47.356;19.448;2023-05-10T16:08:22;19.55;46.45
68274;SHT30;55104;47.356;19.448;2023-05-10T16:11:24;19.44;45.65
68274;SHT30;55104;47.356;19.448;2023-05-10T16:14:26;19.68;45.41
68274;SHT30;55104;47.356;19.448;2023-05-10T16:17:28;19.66;45.76
68274;SHT30;55104;47.356;19.448;2023-05-10T16:20:31;19.41;46.34
68274;SHT30;55104;47.356;19.448;2023-05-10T16:23:33;19.27;46.53
68274;SHT30;55104;47.356;19.448;2023-05-10T16:26:35;19.04;46.25
68274;SHT30;55104;47.356;19.448;2023-05-10T16:29:41;18.98;46.93
68274;SHT30;55104;47.356;19.448;2023-05-10T16:32:43;18.81;46.36
68274;SHT30;55104;47.356;19.448;2023-05-10T16:35:45;18.73;47.06
68274;SHT30;55104;47.356;19.448;2023-05-10T16:38:47;18.68;47.50
68274;SHT30;55104;47.356;19.448;2023-05-10T16:41:49;18.55;48.01
68274;SHT30;55104;47.356;19.448;2023-05-10T16:44:53;18.58;48.37
68274;SHT30;55104;47.356;19.448;2023-05-10T16:47:55;18.44;48.47
68274;SHT30;55104;47.356;19.448;2023-05-10T16:50:57;18.36;49.17
68274;SHT30;55104;47.356;19.448;2023-05-10T16:53:59;18.23;50.30
68274;SHT30;55104;47.356;19.448;2023-05-10T16:57:02;18.33;49.86
68274;SHT30;55104;47.356;19.448;2023-05-10T17:00:04;18.31;50.25
68274;SHT30;55104;47.356;19.448;2023-05-10T17:03:06;18.14;50.60
68274;SHT30;55104;47.356;19.448;2023-05-10T17:06:09;18.17;50.26
68274;SHT30;55104;47.356;19.448;2023-05-10T17:09:11;18.07;50.31
68274;SHT30;55104;47.356;19.448;2023-05-10T17:12:13;17.99;50.13
68274;SHT30;55104;47.356;19.448;2023-05-10T17:15:16;17.89;50.64
68274;SHT30;55104;47.356;19.448;2023-05-10T17:18:20;17.87;50.59
68274;SHT30;55104;47.356;19.448;2023-05-10T17:21:22;17.81;51.23
68274;SHT30;55104;47.356;19.448;2023-05-10T17:24:24;17.71;51.95
68274;SHT30;55104;47.356;19.448;2023-05-10T17:27:30;17.56;52.76
68274;SHT30;55104;47.356;19.448;2023-05-10T17:30:32;17.42;53.22
68274;SHT30;55104;47.356;19.448;2023-05-10T17:33:34;17.35;53.22
68274;SHT30;55104;47.356;19.448;2023-05-10T17:36:36;17.17;53.04
68274;SHT30;55104;47.356;19.448;2023-05-10T17:39:38;17.06;53.08
68274;SHT30;55104;47.356;19.448;2023-05-10T17:42:40;16.94;53.33
68274;SHT30;55104;47.356;19.448;2023-05-10T17:45:46;16.80;54.00
68274;SHT30;55104;47.356;19.448;2023-05-10T17:48:48;16.73;53.93
68274;SHT30;55104;47.356;19.448;2023-05-10T17:51:51;16.47;54.35
68274;SHT30;55104;47.356;19.448;2023-05-10T17:54:53;16.24;54.95
68274;SHT30;55104;47.356;19.448;2023-05-10T17:57:55;16.20;55.18
68274;SHT30;55104;47.356;19.448;2023-05-10T18:01:00;16.13;55.47
68274;SHT30;55104;47.356;19.448;2023-05-10T18:04:02;15.89;56.15
68274;SHT30;55104;47.356;19.448;2023-05-10T18:07:05;15.82;56.71
68274;SHT30;55104;47.356;19.448;2023-05-10T18:10:09;15.67;57.13
68274;SHT30;55104;47.356;19.448;2023-05-10T18:13:11;15.56;57.64
68274;SHT30;55104;47.356;19.448;2023-05-10T18:16:14;15.41;57.87
68274;SHT30;55104;47.356;19.448;2023-05-10T18:19:16;15.30;58.41
68274;SHT30;55104;47.356;19.448;2023-05-10T18:22:18;15.21;58.86
68274;SHT30;55104;47.356;19.448;2023-05-10T18:25:20;15.14;59.18
68274;SHT30;55104;47.356;19.448;2023-05-10T18:28:22;15.00;59.41
68274;SHT30;55104;47.356;19.448;2023-05-10T18:31:25;14.94;59.53
68274;SHT30;55104;47.356;19.448;2023-05-10T18:34:28;14.96;59.69
68274;SHT30;55104;47.356;19.448;2023-05-10T18:37:30;14.83;60.06
68274;SHT30;55104;47.356;19.448;2023-05-10T18:40:33;14.79;60.14
68274;SHT30;55104;47.356;19.448;2023-05-10T18:43:35;14.72;60.38
68274;SHT30;55104;47.356;19.448;2023-05-10T18:46:37;14.68;60.26
68274;SHT30;55104;47.356;19.448;2023-05-10T18:49:40;14.61;60.57
68274;SHT30;55104;47.356;19.448;2023-05-10T18:52:43;14.58;60.52
68274;SHT30;55104;47.356;19.448;2023-05-10T18:55:45;14.48;60.56
68274;SHT30;55104;47.356;19.448;2023-05-10T18:58:48;14.49;60.92
68274;SHT30;55104;47.356;19.448;2023-05-10T19:01:50;14.42;60.65
68274;SHT30;55104;47.356;19.448;2023-05-10T19:04:55;14.31;60.96
68274;SHT30;55104;47.356;19.448;2023-05-10T19:08:00;14.28;61.17
68274;SHT30;55104;47.356;19.448;2023-05-10T19:11:03;14.29;61.09
68274;SHT30;55104;47.356;19.448;2023-05-10T19:14:05;14.22;61.13
68274;SHT30;55104;47.356;19.448;2023-05-10T19:17:08;14.17;61.47
68274;SHT30;55104;47.356;19.448;2023-05-10T19:20:10;14.15;61.30
68274;SHT30;55104;47.356;19.448;2023-05-10T19:23:13;14.04;61.67
68274;SHT30;55104;47.356;19.448;2023-05-10T19:26:15;14.03;61.63